Time;durP1;ratioP1;P1;durP2;ratioP2;P2;SDS_P1;SDS_P2;PMS_P1;PMS_P2;Temp;Humidity;BMP_temperature;BMP_pressure;BME280_temperature;BME280_humidity;BME280_pressure;Samples;Min_cycle;Max_cycle;Signal;HPM_P1;HPM_P2
2020/12/22 00:01:19;;;;;;;54.23;28.25;;;;;;;0.40;87.69;101207.73;1666616;85;22078;-78
2020/12/22 00:03:45;;;;;;;;;;;;;;;0.42;87.71;101203.56;1659371;84;21193;-78
2020/12/22 00:06:23;;;;;;;49.38;26.12;;;;;;;0.45;87.76;101205.81;1663012;85;26138;-77
2020/12/22 00:08:51;;;;;;;61.28;28.32;;;;;;;0.48;87.76;101197.01;1662640;84;21216;-77
2020/12/22 00:11:18;;;;;;;58.45;28.92;;;;;;;0.50;87.75;101196.66;1651789;84;21213;-77
2020/12/22 00:13:45;;;;;;;59.35;30.43;;;;;;;0.52;87.78;101187.36;1649343;85;21639;-77
2020/12/22 00:16:11;;;;;;;50.40;27.35;;;;;;;0.55;87.79;101186.19;1650402;84;21220;-77
2020/12/22 00:18:37;;;;;;;63.38;31.60;;;;;;;0.57;87.76;101172.25;1656886;84;22057;-77
2020/12/22 00:21:04;;;;;;;59.70;31.70;;;;;;;0.59;87.75;101166.39;1668470;84;22116;-77
2020/12/22 00:23:30;;;;;;;59.58;29.87;;;;;;;0.59;87.74;101166.39;1655739;84;21566;-77
2020/12/22 00:25:56;;;;;;;60.58;30.10;;;;;;;0.60;87.72;101160.90;1664656;84;21232;-77
2020/12/22 00:28:23;;;;;;;63.50;31.65;;;;;;;0.61;87.74;101152.45;1664407;84;21220;-78
2020/12/22 00:30:49;;;;;;;51.05;24.50;;;;;;;0.62;87.73;101141.45;1653465;84;21313;-78
2020/12/22 00:33:16;;;;;;;61.85;32.50;;;;;;;0.64;87.74;101136.02;1667605;85;21705;-77
2020/12/22 00:35:43;;;;;;;54.30;29.18;;;;;;;0.65;87.75;101141.55;1676482;85;21200;-77
2020/12/22 00:38:10;;;;;;;66.60;31.65;;;;;;;0.67;87.80;101151.38;1673658;85;21196;-77
2020/12/22 00:40:36;;;;;;;;;;;;;;;0.70;87.81;101141.70;1674148;83;21177;-77
2020/12/22 00:43:04;;;;;;;56.00;26.73;;;;;;;0.73;87.85;101154.53;1671936;83;20854;-77
2020/12/22 00:45:31;;;;;;;58.90;29.20;;;;;;;0.75;87.87;101143.59;1665866;83;21240;-77
2020/12/22 00:47:57;;;;;;;54.88;28.02;;;;;;;0.81;87.91;101137.83;1669522;84;28441;-77
2020/12/22 00:50:24;;;;;;;58.00;27.48;;;;;;;0.83;87.88;101126.02;1661975;85;21112;-77
2020/12/22 00:52:50;;;;;;;57.90;28.15;;;;;;;0.86;87.86;101123.56;1673562;83;21136;-77
2020/12/22 00:55:17;;;;;;;55.52;27.37;;;;;;;0.90;87.89;101127.94;1669100;84;21101;-77
2020/12/22 00:57:43;;;;;;;55.33;27.73;;;;;;;0.92;87.86;101111.03;1676006;83;21403;-77
2020/12/22 01:00:13;;;;;;;55.38;29.18;;;;;;;0.95;87.87;101097.98;1660405;85;21141;-77
2020/12/22 01:02:39;;;;;;;54.13;27.87;;;;;;;0.97;87.85;101092.53;1666021;85;21132;-77
2020/12/22 01:05:06;;;;;;;52.98;26.33;;;;;;;0.99;87.84;101092.17;1676028;85;21121;-77
2020/12/22 01:07:33;;;;;;;;;;;;;;;1.01;87.86;101084.98;1661985;85;21117;-77
2020/12/22 01:09:59;;;;;;;50.58;25.60;;;;;;;1.04;87.88;101087.19;1667706;85;21344;-77
2020/12/22 01:12:25;;;;;;;49.63;24.72;;;;;;;1.06;87.87;101085.55;1682142;84;21257;-77
2020/12/22 01:14:51;;;;;;;47.78;25.45;;;;;;;1.09;87.91;101080.95;1666906;84;21809;-77
2020/12/22 01:17:18;;;;;;;56.35;27.82;;;;;;;1.11;87.91;101078.91;1664862;85;21244;-77
2020/12/22 01:19:45;;;;;;;51.18;25.88;;;;;;;1.14;87.91;101076.86;1681890;85;21184;-77
2020/12/22 01:22:11;;;;;;;49.08;25.95;;;;;;;1.17;87.90;101082.05;1667140;83;22375;-77
2020/12/22 01:24:38;;;;;;;48.52;26.00;;;;;;;1.19;87.89;101076.17;1669580;83;21224;-77
2020/12/22 01:27:04;;;;;;;51.92;27.22;;;;;;;1.22;87.90;101065.22;1670716;83;21193;-77
2020/12/22 01:29:31;;;;;;;53.05;27.55;;;;;;;1.24;87.90;101059.76;1674289;83;21247;-77
2020/12/22 01:31:57;;;;;;;47.73;24.50;;;;;;;1.27;87.90;101050.93;1658287;84;22566;-77
2020/12/22 01:34:23;;;;;;;52.40;26.80;;;;;;;1.28;87.87;101052.66;1662747;85;21220;-77
2020/12/22 01:36:49;;;;;;;47.45;24.23;;;;;;;1.29;87.86;101040.37;1671234;84;21204;-77
2020/12/22 01:39:16;;;;;;;48.58;25.23;;;;;;;1.30;87.86;101034.05;1666587;84;21228;-77
2020/12/22 01:41:42;;;;;;;50.05;26.77;;;;;;;1.32;87.87;101029.86;1678651;84;21636;-77
2020/12/22 01:44:14;;;;;;;46.35;25.97;;;;;;;1.34;87.87;101031.17;1630349;87;21225;-78
2020/12/22 01:46:44;;;;;;;55.60;28.00;;;;;;;1.33;87.84;101021.40;1649526;86;21273;-78
2020/12/22 01:49:20;;;;;;;46.92;25.55;;;;;;;1.34;87.84;101013.34;1613097;87;21255;-77
2020/12/22 01:51:48;;;;;;;48.20;25.20;;;;;;;1.35;87.85;101011.66;1609332;87;21743;-77
2020/12/22 01:54:16;;;;;;;46.63;24.52;;;;;;;1.34;87.85;101000.61;1630306;87;21656;-77
2020/12/22 01:56:44;;;;;;;44.98;25.20;;;;;;;1.36;87.87;100995.55;1622507;87;21203;-77
2020/12/22 01:59:10;;;;;;;48.70;25.40;;;;;;;1.35;87.88;100984.50;1627853;86;21259;-77
2020/12/22 02:01:37;;;;;;;47.60;24.75;;;;;;;1.37;87.88;100980.72;1629396;87;25271;-77
2020/12/22 02:04:07;;;;;;;44.88;24.05;;;;;;;1.38;87.88;100976.08;1636595;87;26877;-78
2020/12/22 02:06:34;;;;;;;47.03;24.32;;;;;;;1.39;87.88;100967.20;1627914;87;22116;-78
2020/12/22 02:09:04;;;;;;;45.05;22.40;;;;;;;1.40;87.87;100953.64;1578122;89;21206;-78
2020/12/22 02:11:34;;;;;;;43.00;23.60;;;;;;;1.40;87.86;100948.55;1620550;87;21655;-78
2020/12/22 02:14:02;;;;;;;45.52;23.67;;;;;;;1.43;87.91;100951.59;1630800;86;21188;-78
2020/12/22 02:16:29;;;;;;;43.63;23.27;;;;;;;1.44;87.89;100945.26;1633742;86;170762;-78
2020/12/22 02:18:55;;;;;;;49.40;24.77;;;;;;;1.45;87.92;100941.89;1639478;85;21217;-78
2020/12/22 02:21:22;;;;;;;;;;;;;;;1.47;87.93;100935.14;1657076;86;21628;-78
2020/12/22 02:23:49;;;;;;;45.95;22.05;;;;;;;1.49;87.92;100931.36;1643688;86;21229;-77
2020/12/22 02:26:24;;;;;;;43.45;22.82;;;;;;;1.49;87.90;100924.99;1657279;86;21239;-77
2020/12/22 02:28:52;;;;;;;44.63;24.05;;;;;;;1.50;87.90;100920.34;1647020;86;21726;-77
2020/12/22 02:31:21;;;;;;;45.50;23.95;;;;;;;1.52;87.92;100913.60;1657156;85;21210;-77
2020/12/22 02:33:47;;;;;;;47.45;24.57;;;;;;;1.53;87.94;100908.95;1639656;86;21217;-77
2020/12/22 02:36:15;;;;;;;46.40;24.05;;;;;;;1.54;87.94;100907.72;1604923;87;21907;-78
2020/12/22 02:38:42;;;;;;;47.27;24.45;;;;;;;1.55;87.96;100901.80;1628553;86;21253;-78
2020/12/22 02:41:10;;;;;;;45.52;23.22;;;;;;;1.58;87.96;100900.57;1627323;87;21262;-78
2020/12/22 02:43:36;;;;;;;52.13;24.23;;;;;;;1.60;87.96;100896.38;1626904;86;21233;-78
2020/12/22 02:46:03;;;;;;;;;;;;;;;1.62;87.96;100902.78;1624744;87;21192;-78
2020/12/22 02:48:29;;;;;;;41.45;22.13;;;;;;;1.64;87.99;100902.00;1624324;86;22040;-78
2020/12/22 02:50:56;;;;;;;46.55;22.45;;;;;;;1.68;87.99;100902.08;1632322;86;21767;-77
2020/12/22 02:53:22;;;;;;;42.17;20.90;;;;;;;1.69;87.99;100897.02;1600697;87;21233;-78
2020/12/22 02:55:48;;;;;;;46.98;21.45;;;;;;;1.70;87.99;100898.73;1631810;87;21246;-77
2020/12/22 02:58:15;;;;;;;43.78;21.15;;;;;;;1.73;88.00;100897.54;1631840;86;21203;-77
2020/12/22 03:00:43;;;;;;;42.15;23.45;;;;;;;1.77;87.98;100895.52;1631333;87;21295;-77
2020/12/22 03:03:10;;;;;;;46.33;22.82;;;;;;;1.79;87.99;100893.00;1625067;87;21255;-77
2020/12/22 03:05:36;;;;;;;40.83;21.45;;;;;;;1.82;87.99;100881.61;1627166;87;21227;-77
2020/12/22 03:08:04;;;;;;;39.42;20.65;;;;;;;1.83;87.97;100881.64;1632163;87;21218;-77
2020/12/22 03:10:31;;;;;;;44.67;23.22;;;;;;;1.86;87.96;100861.73;1615362;86;21250;-77
2020/12/22 03:12:57;;;;;;;34.80;20.60;;;;;;;1.88;87.97;100847.33;1631434;86;21236;-77
2020/12/22 03:15:23;;;;;;;44.05;22.05;;;;;;;1.88;87.95;100843.09;1611836;87;21202;-77
2020/12/22 03:17:49;;;;;;;41.20;22.62;;;;;;;1.90;87.95;100835.06;1633519;87;21115;-77
2020/12/22 03:20:16;;;;;;;41.75;21.87;;;;;;;1.91;87.93;100830.83;1647370;86;21553;-78
2020/12/22 03:22:42;;;;;;;40.73;21.15;;;;;;;1.91;87.92;100822.77;1631474;87;21142;-78
2020/12/22 03:25:11;;;;;;;42.00;22.73;;;;;;;1.93;87.94;100824.94;1623879;86;21557;-77
2020/12/22 03:27:39;;;;;;;41.28;21.62;;;;;;;1.93;87.91;100805.81;1632526;87;21143;-78
2020/12/22 03:30:10;;;;;;;37.70;21.73;;;;;;;1.94;87.91;100799.02;1633319;87;43354;-78
2020/12/22 03:32:37;;;;;;;37.60;21.20;;;;;;;1.94;87.93;100805.39;1625196;86;21186;-78
2020/12/22 03:35:05;;;;;;;37.88;21.05;;;;;;;1.95;87.91;100796.50;1633772;86;21115;-77
2020/12/22 03:37:32;;;;;;;40.85;20.95;;;;;;;1.97;87.92;100791.44;1609040;86;21546;-77
2020/12/22 03:40:04;;;;;;;;;;;;;;;1.96;87.92;100772.72;1635180;86;21890;-77
2020/12/22 03:42:27;;;;;;;36.58;20.52;;;;;;;1.97;87.95;100773.59;1627790;86;20264;-77
2020/12/22 03:44:54;;;;;;;35.48;19.98;;;;;;;1.98;87.93;100761.28;1631992;87;21139;-78
2020/12/22 03:47:20;;;;;;;39.73;21.62;;;;;;;2.00;87.96;100760.90;1633371;87;21519;-78
2020/12/22 03:49:47;;;;;;;36.28;20.45;;;;;;;2.02;87.96;100755.83;1625713;87;21256;-78
2020/12/22 03:52:13;;;;;;;41.05;20.85;;;;;;;2.04;87.95;100762.69;1625922;86;21239;-78
2020/12/22 03:54:39;;;;;;;34.83;20.77;;;;;;;2.05;87.96;100762.27;1631147;86;21231;-78
2020/12/22 03:57:06;;;;;;;34.18;17.90;;;;;;;2.07;87.95;100755.52;1620617;87;21217;-78
2020/12/22 03:59:34;;;;;;;34.63;18.20;;;;;;;2.08;87.94;100751.69;1628037;86;21238;-77
2020/12/22 04:02:03;;;;;;;34.03;18.42;;;;;;;2.09;87.94;100744.89;1631357;87;21222;-77
2020/12/22 04:04:29;;;;;;;31.82;18.52;;;;;;;2.10;87.95;100742.79;1631606;86;21257;-77
2020/12/22 04:06:56;;;;;;;35.88;20.65;;;;;;;2.12;87.95;100743.69;1632095;87;21202;-77
2020/12/22 04:09:22;;;;;;;35.28;19.48;;;;;;;2.13;87.95;100741.58;1627226;87;21258;-77
2020/12/22 04:11:49;;;;;;;;;;;;;;;2.15;87.94;100736.09;1633645;87;21501;-77
2020/12/22 04:14:16;;;;;;;31.12;17.82;;;;;;;2.16;87.96;100732.71;1631972;86;21796;-77
2020/12/22 04:16:43;;;;;;;33.15;17.87;;;;;;;2.18;87.99;100728.50;1620267;86;21258;-77
2020/12/22 04:19:09;;;;;;;;;;;;;;;2.19;88.00;100723.43;1627312;86;21250;-78
2020/12/22 04:21:36;;;;;;;36.03;19.23;;;;;;;2.22;87.98;100717.53;1620082;87;20557;-78
2020/12/22 04:24:04;;;;;;;34.45;19.48;;;;;;;2.23;87.98;100719.25;1629065;86;21727;-78
2020/12/22 04:26:32;;;;;;;36.30;18.15;;;;;;;2.24;87.96;100709.48;1626038;86;21271;-78
2020/12/22 04:28:58;;;;;;;31.55;18.65;;;;;;;2.24;87.96;100704.39;1631088;86;21249;-78
2020/12/22 04:31:24;;;;;;;27.90;17.32;;;;;;;2.26;87.96;100705.28;1631053;87;21636;-78
2020/12/22 04:33:52;;;;;;;30.57;17.35;;;;;;;2.27;87.96;100705.72;1622880;86;21628;-78
2020/12/22 04:36:20;;;;;;;30.17;17.20;;;;;;;2.29;87.97;100704.06;1643289;85;21629;-78
2020/12/22 04:38:48;;;;;;;35.45;19.50;;;;;;;2.29;87.98;100701.09;1635632;86;22056;-78
2020/12/22 04:41:16;;;;;;;29.00;17.10;;;;;;;2.31;87.97;100698.16;1635639;86;21259;-78
2020/12/22 04:43:45;;;;;;;32.00;17.65;;;;;;;2.33;87.96;100689.25;1644551;85;21235;-78
2020/12/22 04:46:18;;;;;;;29.45;15.85;;;;;;;2.35;87.97;100680.36;1632800;86;21147;-78
2020/12/22 04:48:52;;;;;;;27.30;16.65;;;;;;;2.35;87.96;100674.84;1647642;86;21855;-78
2020/12/22 04:51:20;;;;;;;34.25;17.92;;;;;;;2.38;87.96;100668.93;1622735;87;21261;-78
2020/12/22 04:53:46;;;;;;;33.58;18.17;;;;;;;2.39;87.94;100669.38;1630527;87;21194;-78
2020/12/22 04:56:13;;;;;;;26.82;16.05;;;;;;;2.41;87.96;100670.26;1634891;86;21495;-78
2020/12/22 04:58:40;;;;;;;27.70;16.73;;;;;;;2.41;87.95;100663.87;1625228;86;21242;-78
2020/12/22 05:01:07;;;;;;;29.87;17.15;;;;;;;2.41;87.94;100655.80;1635690;86;21195;-78
2020/12/22 05:03:33;;;;;;;28.57;16.75;;;;;;;2.42;87.94;100655.39;1614677;87;22002;-78
2020/12/22 05:06:00;;;;;;;28.12;16.80;;;;;;;2.42;87.94;100652.42;1623529;86;21695;-78
2020/12/22 05:08:26;;;;;;;29.00;16.80;;;;;;;2.42;87.95;100647.32;1649376;86;21842;-78
2020/12/22 05:10:52;;;;;;;30.48;17.65;;;;;;;2.43;87.96;100646.48;1635745;86;21246;-78
2020/12/22 05:13:21;;;;;;;30.70;17.40;;;;;;;2.44;87.98;100632.89;1628078;86;21233;-78
2020/12/22 05:15:52;;;;;;;34.58;16.97;;;;;;;2.44;87.97;100630.34;1634077;86;21207;-76
2020/12/22 05:18:25;;;;;;;28.47;15.72;;;;;;;2.43;87.95;100623.94;1620659;86;21266;-77
2020/12/22 05:20:55;;;;;;;27.40;15.88;;;;;;;2.43;87.97;100627.34;1649406;86;21203;-77
2020/12/22 05:23:22;;;;;;;22.55;14.63;;;;;;;2.43;87.97;100615.87;1635867;85;21267;-77
2020/12/22 05:25:51;;;;;;;28.00;15.65;;;;;;;2.45;87.99;100611.65;1632705;86;21656;-77
2020/12/22 05:28:20;;;;;;;29.63;15.95;;;;;;;2.45;88.00;100605.69;1632703;86;21236;-77
2020/12/22 05:30:51;;;;;;;27.42;16.42;;;;;;;2.46;88.02;100595.92;1643774;85;21219;-77
2020/12/22 05:33:19;;;;;;;29.80;17.37;;;;;;;2.46;87.99;100596.78;1629433;86;21718;-77
2020/12/22 05:35:48;;;;;;;29.32;15.93;;;;;;;2.45;88.02;100587.41;1640288;85;21225;-77
2020/12/22 05:38:18;;;;;;;33.20;17.95;;;;;;;2.45;88.00;100584.85;1647520;85;21148;-77
2020/12/22 05:40:45;;;;;;;28.47;16.25;;;;;;;2.44;88.00;100574.62;1629584;86;21176;-77
2020/12/22 05:43:12;;;;;;;25.77;15.08;;;;;;;2.44;88.03;100570.38;1648481;85;21142;-77
2020/12/22 05:45:40;;;;;;;;;;;;;;;2.46;88.03;100575.50;1651339;85;21150;-77
2020/12/22 05:48:12;;;;;;;28.55;15.18;;;;;;;2.46;88.07;100569.13;1636985;87;20275;-77
2020/12/22 05:50:38;;;;;;;27.98;15.18;;;;;;;2.46;88.07;100575.09;1635190;86;21150;-77
2020/12/22 05:53:09;;;;;;;21.20;14.00;;;;;;;2.46;88.07;100571.26;1636344;86;21175;-77
2020/12/22 05:55:36;;;;;;;25.60;15.43;;;;;;;2.48;88.09;100566.18;1631843;86;21430;-77
2020/12/22 05:58:13;;;;;;;28.02;15.25;;;;;;;2.49;88.12;100556.41;1629929;87;21151;-77
2020/12/22 06:00:43;;;;;;;26.75;15.30;;;;;;;2.50;88.14;100556.44;1640071;85;21132;-77
2020/12/22 06:03:12;;;;;;;24.98;14.83;;;;;;;2.51;88.14;100554.74;1617211;87;21165;-77
2020/12/22 06:05:41;;;;;;;30.60;15.65;;;;;;;2.53;88.16;100551.80;1609855;87;21268;-75
2020/12/22 06:08:11;;;;;;;26.35;15.00;;;;;;;2.53;88.14;100542.87;1648071;85;21531;-75
2020/12/22 06:10:39;;;;;;;26.20;16.10;;;;;;;2.54;88.16;100544.16;1624171;86;21119;-75
2020/12/22 06:13:07;;;;;;;23.80;14.63;;;;;;;2.56;88.17;100530.16;1629676;85;21128;-75
2020/12/22 06:15:35;;;;;;;23.12;14.33;;;;;;;2.56;88.17;100526.32;1642682;85;21561;-75
2020/12/22 06:18:04;;;;;;;27.90;14.55;;;;;;;2.56;88.18;100519.52;1644982;86;21582;-75
2020/12/22 06:20:31;;;;;;;22.65;13.98;;;;;;;2.59;88.20;100521.27;1638980;86;21198;-75
2020/12/22 06:23:07;;;;;;;28.27;15.63;;;;;;;2.60;88.18;100511.05;1640277;85;21112;-75
2020/12/22 06:25:34;;;;;;;;;;;;;;;2.59;88.19;100505.53;1627895;86;21152;-75
2020/12/22 06:28:00;;;;;;;;;;;;;;;2.59;88.20;100501.70;1635900;86;20256;-75
2020/12/22 06:30:36;;;;;;;25.82;14.38;;;;;;;2.58;88.25;100494.02;1633252;87;21431;-75
2020/12/22 06:33:23;;;;;;;23.87;14.07;;;;;;;2.58;88.24;100484.67;1632647;87;21231;-75
2020/12/22 06:36:06;;;;;;;22.42;14.80;;;;;;;2.57;88.26;100475.30;1630750;86;21275;-75
2020/12/22 06:38:54;;;;;;;26.95;14.90;;;;;;;2.57;88.28;100464.23;1642177;86;21242;-75
2020/12/22 06:41:39;;;;;;;26.93;15.45;;;;;;;2.58;88.31;100459.56;1632635;86;21250;-78
2020/12/22 06:44:18;;;;;;;26.65;14.65;;;;;;;2.57;88.32;100454.88;1640823;85;21237;-78
2020/12/22 06:46:51;;;;;;;23.40;14.60;;;;;;;2.58;88.35;100449.36;1631219;86;21227;-76
2020/12/22 06:49:20;;;;;;;24.27;15.50;;;;;;;2.58;88.37;100444.25;1626558;86;21241;-76
2020/12/22 06:51:46;;;;;;;21.20;13.20;;;;;;;2.60;88.38;100446.41;1587978;87;21218;-76
2020/12/22 06:54:20;;;;;;;16.90;11.45;;;;;;;2.62;88.40;100449.81;1645557;85;21216;-76
2020/12/22 06:56:52;;;;;;;22.15;13.53;;;;;;;2.63;88.42;100440.89;1634729;86;21202;-77
2020/12/22 06:59:44;;;;;;;24.77;13.28;;;;;;;2.66;88.42;100438.80;1638606;85;21809;-76
2020/12/22 07:02:30;;;;;;;19.77;12.43;;;;;;;2.68;88.43;100434.99;1624784;86;21226;-77
2020/12/22 07:04:58;;;;;;;17.42;12.35;;;;;;;2.71;88.47;100426.09;1619919;87;21881;-77
2020/12/22 07:07:25;;;;;;;17.62;11.83;;;;;;;2.71;88.49;100418.44;1602023;87;21758;-77
2020/12/22 07:10:02;;;;;;;18.77;11.73;;;;;;;2.74;88.53;100411.67;1646953;85;22323;-76
2020/12/22 07:12:31;;;;;;;18.95;11.93;;;;;;;2.76;88.58;100398.51;1623316;86;21262;-77
2020/12/22 07:14:57;;;;;;;19.62;11.38;;;;;;;2.76;88.59;100390.84;1628874;86;21619;-77
2020/12/22 07:17:25;;;;;;;20.12;11.53;;;;;;;2.78;88.58;100387.04;1610121;87;21230;-77
2020/12/22 07:19:55;;;;;;;20.25;12.28;;;;;;;2.79;88.61;100388.75;1609911;86;21221;-77
2020/12/22 07:22:23;;;;;;;15.55;10.80;;;;;;;2.80;88.66;100387.50;1627260;87;21235;-77
2020/12/22 07:24:50;;;;;;;17.80;11.00;;;;;;;2.83;88.67;100399.44;1646913;85;21598;-77
2020/12/22 07:27:16;;;;;;;17.30;11.10;;;;;;;2.84;88.67;100404.56;1628581;86;21992;-77
2020/12/22 07:29:43;;;;;;;14.60;10.90;;;;;;;2.86;88.70;100408.00;1623018;87;21606;-77
2020/12/22 07:32:11;;;;;;;14.25;10.58;;;;;;;2.87;88.70;100403.75;1636925;86;21124;-77
2020/12/22 07:34:38;;;;;;;16.27;10.90;;;;;;;2.88;88.73;100401.21;1641241;86;21267;-77
2020/12/22 07:37:05;;;;;;;;;;;;;;;2.90;88.75;100399.95;1649965;86;21176;-77
2020/12/22 07:39:33;;;;;;;15.40;10.03;;;;;;;2.92;88.77;100395.30;1648123;85;20252;-77
2020/12/22 07:42:14;;;;;;;17.20;10.32;;;;;;;2.93;88.77;100404.67;1650565;85;21122;-77
2020/12/22 07:44:45;;;;;;;15.28;10.82;;;;;;;2.95;88.79;100397.89;1628460;87;21129;-77
2020/12/22 07:47:12;;;;;;;16.00;10.90;;;;;;;2.98;88.81;100409.84;1631633;87;21195;-78
2020/12/22 07:49:40;;;;;;;14.35;9.28;;;;;;;3.02;88.84;100403.06;1636747;86;21163;-77
2020/12/22 07:52:07;;;;;;;13.55;9.15;;;;;;;3.04;88.83;100397.56;1621795;86;21011;-78
2020/12/22 07:54:33;;;;;;;17.27;10.53;;;;;;;3.06;88.85;100395.45;1636569;86;21148;-78
2020/12/22 07:57:00;;;;;;;15.60;9.05;;;;;;;3.10;88.84;100395.07;1628569;86;21154;-77
2020/12/22 07:59:28;;;;;;;13.88;9.63;;;;;;;3.13;88.88;100392.09;1613348;86;21242;-77
2020/12/22 08:01:55;;;;;;;15.60;10.63;;;;;;;3.15;88.86;100381.89;1644366;86;21225;-77
2020/12/22 08:04:26;;;;;;;15.28;10.15;;;;;;;3.18;88.88;100380.23;1631332;86;21215;-78
2020/12/22 08:07:03;;;;;;;15.13;10.95;;;;;;;3.22;88.88;100378.56;1634779;87;21285;-77
2020/12/22 08:09:53;;;;;;;15.72;10.25;;;;;;;3.24;88.88;100375.18;1635288;87;27057;-78
2020/12/22 08:12:19;;;;;;;16.97;11.80;;;;;;;3.27;88.89;100362.86;1486798;89;5000412;-77
2020/12/22 08:14:46;;;;;;;14.65;10.68;;;;;;;3.29;88.89;100353.50;1526458;92;21886;-77
2020/12/22 08:17:19;;;;;;;17.27;10.50;;;;;;;3.32;88.91;100345.87;1507424;92;21295;-77
2020/12/22 08:19:46;;;;;;;14.55;10.35;;;;;;;3.33;88.90;100334.80;1515546;93;21298;-77
2020/12/22 08:22:16;;;;;;;;;;;;;;;3.37;88.90;100334.41;1542871;91;21751;-79
2020/12/22 08:24:42;;;;;;;17.52;11.00;;;;;;;3.37;88.91;100325.47;1529520;91;21226;-77
2020/12/22 08:27:08;;;;;;;;;;;;;;;3.39;88.90;100332.72;1545202;91;21316;-77
2020/12/22 08:29:37;;;;;;;18.40;9.78;;;;;;;3.41;88.94;100315.70;1530936;92;20236;-77
2020/12/22 08:32:03;;;;;;;21.35;10.70;;;;;;;3.43;88.94;100321.27;1528934;92;22351;-77
2020/12/22 08:34:30;;;;;;;20.50;11.25;;;;;;;3.46;88.97;100305.95;1509994;93;22422;-77
2020/12/22 08:36:56;;;;;;;20.92;11.40;;;;;;;3.51;88.95;100293.20;1574465;90;21268;-75
2020/12/22 08:39:26;;;;;;;20.60;11.95;;;;;;;3.51;88.93;100303.02;1580334;90;21280;-78
2020/12/22 08:41:58;;;;;;;15.90;10.48;;;;;;;3.55;88.95;100303.47;1558971;89;21333;-79
2020/12/22 08:44:26;;;;;;;15.95;10.63;;;;;;;3.57;88.94;100288.14;1583702;89;21313;-75
2020/12/22 08:46:54;;;;;;;17.67;11.97;;;;;;;3.60;88.95;100290.72;1584973;89;22511;-75
2020/12/22 08:49:28;;;;;;;16.90;10.95;;;;;;;3.62;88.97;100286.47;1582033;89;21330;-75
2020/12/22 08:51:51;;;;;;;23.75;11.28;;;;;;;3.66;88.99;100282.64;1580428;88;21556;-78
2020/12/22 08:54:17;;;;;;;17.90;11.73;;;;;;;3.70;89.01;100277.13;1586250;88;21210;-78
2020/12/22 08:56:44;;;;;;;15.58;10.58;;;;;;;3.72;89.02;100271.59;1586016;88;21252;-78
2020/12/22 08:59:11;;;;;;;15.65;10.18;;;;;;;3.75;89.00;100265.64;1586044;88;21233;-78
2020/12/22 09:01:45;;;;;;;17.40;10.28;;;;;;;3.61;88.98;100234.48;1586682;89;21591;-79
2020/12/22 09:04:13;;;;;;;17.95;10.75;;;;;;;3.79;89.02;100265.67;1591791;88;21219;-79
2020/12/22 09:06:48;;;;;;;16.25;10.68;;;;;;;3.83;89.03;100261.44;1589794;88;21156;-79
2020/12/22 09:09:27;;;;;;;17.45;10.80;;;;;;;3.86;89.06;100244.83;1596019;88;22071;-79
2020/12/22 09:12:07;;;;;;;15.90;10.08;;;;;;;3.89;89.05;100249.53;1607664;87;21171;-79
2020/12/22 09:14:46;;;;;;;21.48;10.88;;;;;;;3.93;89.09;100250.41;1607220;87;21240;-79
2020/12/22 09:17:31;;;;;;;14.60;10.75;;;;;;;3.96;89.10;100250.00;1603497;87;21539;-78
2020/12/22 09:19:58;;;;;;;17.52;11.15;;;;;;;4.01;89.11;100246.19;1604913;87;21242;-79
2020/12/22 09:22:30;;;;;;;18.27;10.30;;;;;;;4.04;89.10;100238.52;1605847;87;21159;-79
2020/12/22 09:25:00;;;;;;;15.32;9.70;;;;;;;4.06;89.12;100237.25;1605025;87;21150;-79
2020/12/22 09:27:39;;;;;;;17.48;11.73;;;;;;;4.09;89.11;100240.68;1607883;87;21343;-79
2020/12/22 09:30:09;;;;;;;20.23;10.90;;;;;;;4.12;89.13;100242.39;1614381;87;21157;-79
2020/12/22 09:32:36;;;;;;;16.75;10.50;;;;;;;4.15;89.11;100230.89;1611543;87;21151;-79
2020/12/22 09:35:03;;;;;;;13.10;9.48;;;;;;;4.17;89.11;100218.93;1608040;87;21545;-79
2020/12/22 09:37:29;;;;;;;18.67;10.68;;;;;;;4.20;89.17;100224.91;1607716;87;21274;-79
2020/12/22 09:39:56;;;;;;;17.80;10.50;;;;;;;4.22;89.17;100214.25;1605847;87;21286;-79
2020/12/22 09:42:24;;;;;;;14.10;9.15;;;;;;;4.27;89.19;100204.89;1606759;87;21716;-79
2020/12/22 09:44:51;;;;;;;14.10;9.73;;;;;;;4.33;89.21;100197.66;1606863;87;21232;-79
2020/12/22 09:47:18;;;;;;;16.37;10.13;;;;;;;4.36;89.19;100188.70;1603326;87;27410;-79
2020/12/22 09:49:44;;;;;;;11.48;8.45;;;;;;;4.40;89.20;100185.73;1582481;87;21270;-79
2020/12/22 09:52:11;;;;;;;16.50;9.88;;;;;;;4.43;89.18;100187.02;1606038;87;21227;-79
2020/12/22 09:54:37;;;;;;;13.53;9.75;;;;;;;4.45;89.19;100183.61;1603983;87;21524;-79
2020/12/22 09:57:04;;;;;;;12.07;8.35;;;;;;;4.48;89.18;100172.09;1606634;87;21249;-79
2020/12/22 09:59:30;;;;;;;;;;;;;;;4.51;89.20;100172.09;1607370;87;21230;-78
2020/12/22 10:02:00;;;;;;;12.05;8.58;;;;;;;4.54;89.24;100163.56;1605810;87;20319;-78
2020/12/22 10:04:27;;;;;;;12.03;8.23;;;;;;;4.57;89.22;100164.42;1604814;87;22818;-78
2020/12/22 10:06:54;;;;;;;12.37;8.90;;;;;;;4.59;89.25;100158.87;1608010;87;21246;-78
2020/12/22 10:09:20;;;;;;;;;;;;;;;4.62;89.24;100151.63;1610131;87;21256;-78
2020/12/22 10:11:46;;;;;;;16.20;9.55;;;;;;;4.64;89.28;100161.02;1608178;87;20687;-79
2020/12/22 10:14:13;;;;;;;10.95;8.38;;;;;;;4.65;89.27;100153.77;1609679;87;21746;-79
2020/12/22 10:16:39;;;;;;;14.68;9.18;;;;;;;4.69;89.29;100154.59;1612562;87;21233;-78
2020/12/22 10:19:05;;;;;;;14.13;9.10;;;;;;;4.73;89.30;100149.05;1607254;87;21240;-79
2020/12/22 10:21:32;;;;;;;17.02;9.45;;;;;;;4.73;89.28;100147.34;1611309;87;21227;-79
2020/12/22 10:24:04;;;;;;;13.08;9.05;;;;;;;4.76;89.28;100146.48;1608953;87;21244;-79
2020/12/22 10:26:29;;;;;;;9.90;8.20;;;;;;;4.77;89.29;100145.20;1607830;87;21652;-79
2020/12/22 10:28:55;;;;;;;16.73;10.00;;;;;;;4.80;89.28;100136.23;1606878;87;21684;-78
2020/12/22 10:31:24;;;;;;;18.37;11.08;;;;;;;4.81;89.28;100119.16;1605397;88;21211;-79
2020/12/22 10:33:51;;;;;;;16.23;10.10;;;;;;;4.82;89.31;100125.98;1611226;87;21166;-78
2020/12/22 10:36:19;;;;;;;;;;;;;;;4.84;89.31;100121.30;1612158;87;21513;-78
2020/12/22 10:38:46;;;;;;;13.32;9.65;;;;;;;4.86;89.32;100123.43;1608710;87;20593;-78
2020/12/22 10:41:15;;;;;;;16.27;10.40;;;;;;;4.88;89.35;100115.31;1609510;87;21265;-81
2020/12/22 10:43:41;;;;;;;14.73;9.83;;;;;;;4.92;89.36;100103.36;1605773;87;21150;-78
2020/12/22 10:46:07;;;;;;;14.95;9.95;;;;;;;4.93;89.34;100100.80;1605723;87;21187;-78
2020/12/22 10:48:33;;;;;;;12.15;8.40;;;;;;;4.96;89.34;100096.09;1609154;87;21396;-78
2020/12/22 10:51:00;;;;;;;13.22;9.38;;;;;;;4.99;89.37;100092.25;1607851;87;21130;-78
2020/12/22 10:53:26;;;;;;;16.25;9.60;;;;;;;5.03;89.37;100094.37;1608326;87;21268;-78
2020/12/22 10:55:55;;;;;;;14.65;9.83;;;;;;;5.05;89.42;100093.52;1610975;87;21163;-78
2020/12/22 10:58:22;;;;;;;13.40;9.05;;;;;;;5.09;89.44;100082.41;1608958;87;21178;-78
2020/12/22 11:00:49;;;;;;;12.73;9.43;;;;;;;5.12;89.42;100084.96;1601926;87;21709;-78
2020/12/22 11:03:19;;;;;;;11.30;7.83;;;;;;;5.15;89.44;100083.67;1610679;87;21151;-78
2020/12/22 11:08:28;;;;;;;10.40;8.33;;;;;;;5.22;89.44;100073.80;1610940;87;21475;-78
2020/12/22 11:10:54;;;;;;;12.30;8.30;;;;;;;5.28;89.44;100069.08;1611059;87;21142;-78
2020/12/22 11:13:20;;;;;;;10.23;7.92;;;;;;;5.31;89.48;100074.20;1609516;87;21126;-78
2020/12/22 11:15:47;;;;;;;10.38;7.25;;;;;;;5.37;89.48;100072.05;1604588;87;21167;-78
2020/12/22 11:18:13;;;;;;;9.48;7.00;;;;;;;5.40;89.53;100070.75;1609751;87;21919;-78
2020/12/22 11:20:39;;;;;;;9.95;7.30;;;;;;;5.43;89.51;100067.75;1609158;87;21051;-78
2020/12/22 11:23:05;;;;;;;10.82;7.30;;;;;;;5.47;89.53;100069.44;1607877;87;21137;-78
2020/12/22 11:25:32;;;;;;;8.45;6.37;;;;;;;5.50;89.51;100066.02;1609410;87;21138;-78
2020/12/22 11:27:58;;;;;;;9.45;6.47;;;;;;;5.52;89.53;100061.30;1608786;87;21171;-78
2020/12/22 11:30:25;;;;;;;10.15;7.78;;;;;;;5.54;89.52;100062.14;1600564;87;21039;-77
2020/12/22 11:32:51;;;;;;;10.72;7.08;;;;;;;5.57;89.54;100057.00;1598486;87;22032;-77